sensor_id;sensor_type;location;lat;lon;timestamp;pressure;altitude;pressure_sealevel;temperature;humidity
53506;BME280;39388;50.936;6.848;2023-03-15T00:01:59;100638.69;;;4.30;71.16
53506;BME280;39388;50.936;6.848;2023-03-15T00:04:30;100652.38;;;4.34;70.67
53506;BME280;39388;50.936;6.848;2023-03-15T00:07:01;100645.53;;;4.32;71.00
53506;BME280;39388;50.936;6.848;2023-03-15T00:09:32;100647.25;;;4.31;70.84
53506;BME280;39388;50.936;6.848;2023-03-15T00:12:02;100645.47;;;4.28;71.51
53506;BME280;39388;50.936;6.848;2023-03-15T00:14:33;100641.19;;;4.27;71.48
53506;BME280;39388;50.936;6.848;2023-03-15T00:17:03;100642.16;;;4.33;71.53
53506;BME280;39388;50.936;6.848;2023-03-15T00:19:34;100665.28;;;4.40;71.52
53506;BME280;39388;50.936;6.848;2023-03-15T00:22:04;100662.78;;;4.43;71.48
53506;BME280;39388;50.936;6.848;2023-03-15T00:24:34;100650.03;;;4.43;71.68
53506;BME280;39388;50.936;6.848;2023-03-15T00:27:05;100650.09;;;4.47;71.33
53506;BME280;39388;50.936;6.848;2023-03-15T00:29:35;100658.69;;;4.52;71.84
53506;BME280;39388;50.936;6.848;2023-03-15T00:32:06;100649.34;;;4.52;71.50
53506;BME280;39388;50.936;6.848;2023-03-15T00:34:36;100652.69;;;4.50;71.75
53506;BME280;39388;50.936;6.848;2023-03-15T00:37:06;100662.19;;;4.57;71.87
53506;BME280;39388;50.936;6.848;2023-03-15T00:39:37;100668.22;;;4.62;71.34
53506;BME280;39388;50.936;6.848;2023-03-15T00:42:10;100658.00;;;4.60;71.68
53506;BME280;39388;50.936;6.848;2023-03-15T00:44:42;100649.41;;;4.57;72.06
53506;BME280;39388;50.936;6.848;2023-03-15T00:47:13;100666.53;;;4.61;72.25
53506;BME280;39388;50.936;6.848;2023-03-15T00:49:44;100662.25;;;4.60;72.75
53506;BME280;39388;50.936;6.848;2023-03-15T00:52:16;100666.53;;;4.63;72.73
53506;BME280;39388;50.936;6.848;2023-03-15T00:54:53;100652.97;;;4.65;72.79
53506;BME280;39388;50.936;6.848;2023-03-15T00:57:24;100664.97;;;4.71;72.84
53506;BME280;39388;50.936;6.848;2023-03-15T00:59:54;100668.38;;;4.70;72.50
53506;BME280;39388;50.936;6.848;2023-03-15T01:02:25;100678.78;;;4.79;72.66
53506;BME280;39388;50.936;6.848;2023-03-15T01:04:55;100672.91;;;4.83;72.89
53506;BME280;39388;50.936;6.848;2023-03-15T01:07:25;100671.25;;;4.87;72.68
53506;BME280;39388;50.936;6.848;2023-03-15T01:09:56;100667.03;;;4.90;72.53
53506;BME280;39388;50.936;6.848;2023-03-15T01:12:30;100671.31;;;4.91;72.79
53506;BME280;39388;50.936;6.848;2023-03-15T01:15:03;100674.72;;;4.92;73.22
53506;BME280;39388;50.936;6.848;2023-03-15T01:17:34;100684.13;;;4.93;73.20
53506;BME280;39388;50.936;6.848;2023-03-15T01:20:05;100691.78;;;4.93;73.23
53506;BME280;39388;50.936;6.848;2023-03-15T01:22:36;100672.06;;;4.86;72.94
53506;BME280;39388;50.936;6.848;2023-03-15T01:25:07;100678.03;;;4.85;73.61
53506;BME280;39388;50.936;6.848;2023-03-15T01:27:38;100707.16;;;4.96;73.71
53506;BME280;39388;50.936;6.848;2023-03-15T01:30:09;100711.44;;;4.97;74.44
53506;BME280;39388;50.936;6.848;2023-03-15T01:32:39;100706.31;;;4.96;74.30
53506;BME280;39388;50.936;6.848;2023-03-15T01:35:10;100711.44;;;4.97;74.14
53506;BME280;39388;50.936;6.848;2023-03-15T01:37:40;100707.91;;;4.89;75.09
53506;BME280;39388;50.936;6.848;2023-03-15T01:40:11;100722.38;;;4.88;74.95
53506;BME280;39388;50.936;6.848;2023-03-15T01:42:51;100714.47;;;4.76;75.40
53506;BME280;39388;50.936;6.848;2023-03-15T01:48:26;100708.41;;;4.71;76.06
53506;BME280;39388;50.936;6.848;2023-03-15T01:51:01;100717.78;;;4.70;75.69
53506;BME280;39388;50.936;6.848;2023-03-15T01:53:32;100730.53;;;4.69;76.28
53506;BME280;39388;50.936;6.848;2023-03-15T01:56:05;100721.91;;;4.65;76.61
53506;BME280;39388;50.936;6.848;2023-03-15T01:58:37;100727.00;;;4.64;76.53
53506;BME280;39388;50.936;6.848;2023-03-15T02:01:08;100720.94;;;4.58;77.05
53506;BME280;39388;50.936;6.848;2023-03-15T02:03:43;100732.94;;;4.61;77.22
53506;BME280;39388;50.936;6.848;2023-03-15T02:06:17;100737.16;;;4.60;77.49
53506;BME280;39388;50.936;6.848;2023-03-15T02:08:58;100735.34;;;4.55;77.15
53506;BME280;39388;50.936;6.848;2023-03-15T02:11:30;100731.00;;;4.51;76.99
53506;BME280;39388;50.936;6.848;2023-03-15T02:14:04;100741.19;;;4.48;77.11
53506;BME280;39388;50.936;6.848;2023-03-15T02:16:36;100738.41;;;4.38;77.35
53506;BME280;39388;50.936;6.848;2023-03-15T02:19:15;100739.13;;;4.31;77.55
53506;BME280;39388;50.936;6.848;2023-03-15T02:21:56;100728.63;;;4.17;77.48
53506;BME280;39388;50.936;6.848;2023-03-15T02:27:03;100721.53;;;4.05;77.93
53506;BME280;39388;50.936;6.848;2023-03-15T02:29:34;100722.41;;;4.04;78.11
53506;BME280;39388;50.936;6.848;2023-03-15T02:32:05;100722.31;;;4.01;77.87
53506;BME280;39388;50.936;6.848;2023-03-15T02:34:35;100712.78;;;3.94;78.03
53506;BME280;39388;50.936;6.848;2023-03-15T02:37:06;100718.78;;;3.94;78.01
53506;BME280;39388;50.936;6.848;2023-03-15T02:39:36;100722.91;;;3.89;77.88
53506;BME280;39388;50.936;6.848;2023-03-15T02:42:06;100717.69;;;3.84;77.86
53506;BME280;39388;50.936;6.848;2023-03-15T02:44:38;100724.47;;;3.84;77.64
53506;BME280;39388;50.936;6.848;2023-03-15T02:47:17;100713.94;;;3.68;77.80
53506;BME280;39388;50.936;6.848;2023-03-15T02:49:51;100737.19;;;3.81;77.79
53506;BME280;39388;50.936;6.848;2023-03-15T02:52:22;100741.41;;;3.80;77.66
53506;BME280;39388;50.936;6.848;2023-03-15T02:54:53;100739.59;;;3.76;77.88
53506;BME280;39388;50.936;6.848;2023-03-15T02:57:23;100737.09;;;3.78;77.73
53506;BME280;39388;50.936;6.848;2023-03-15T02:59:54;100746.47;;;3.79;77.77
53506;BME280;39388;50.936;6.848;2023-03-15T03:02:26;100738.56;;;3.68;77.78
53506;BME280;39388;50.936;6.848;2023-03-15T03:04:56;100735.84;;;3.60;78.26
53506;BME280;39388;50.936;6.848;2023-03-15T03:07:26;100737.66;;;3.64;78.31
53506;BME280;39388;50.936;6.848;2023-03-15T03:09:57;100734.91;;;3.57;78.28
53506;BME280;39388;50.936;6.848;2023-03-15T03:12:27;100754.59;;;3.62;78.20
53506;BME280;39388;50.936;6.848;2023-03-15T03:14:57;100745.28;;;3.64;78.23
53506;BME280;39388;50.936;6.848;2023-03-15T03:17:28;100753.78;;;3.63;78.12
53506;BME280;39388;50.936;6.848;2023-03-15T03:19:58;100750.34;;;3.63;78.34
53506;BME280;39388;50.936;6.848;2023-03-15T03:22:28;100762.25;;;3.62;78.11
53506;BME280;39388;50.936;6.848;2023-03-15T03:24:59;100771.63;;;3.63;78.51
53506;BME280;39388;50.936;6.848;2023-03-15T03:27:29;100761.34;;;3.60;78.13
53506;BME280;39388;50.936;6.848;2023-03-15T03:30:00;100770.69;;;3.60;78.56
53506;BME280;39388;50.936;6.848;2023-03-15T03:32:30;100770.69;;;3.60;78.82
53506;BME280;39388;50.936;6.848;2023-03-15T03:35:01;100779.22;;;3.62;78.62
53506;BME280;39388;50.936;6.848;2023-03-15T03:37:31;100778.44;;;3.64;78.35
53506;BME280;39388;50.936;6.848;2023-03-15T03:40:02;100772.34;;;3.59;78.59
53506;BME280;39388;50.936;6.848;2023-03-15T03:42:36;100781.00;;;3.64;78.55
53506;BME280;39388;50.936;6.848;2023-03-15T03:45:07;100774.09;;;3.60;78.61
53506;BME280;39388;50.936;6.848;2023-03-15T03:47:38;100781.03;;;3.66;78.78
53506;BME280;39388;50.936;6.848;2023-03-15T03:50:10;100789.56;;;3.68;78.94
53506;BME280;39388;50.936;6.848;2023-03-15T03:52:40;100793.00;;;3.68;78.68
53506;BME280;39388;50.936;6.848;2023-03-15T03:55:12;100788.75;;;3.69;78.82
53506;BME280;39388;50.936;6.848;2023-03-15T03:57:43;100771.63;;;3.63;78.76
53506;BME280;39388;50.936;6.848;2023-03-15T04:00:14;100792.22;;;3.73;78.80
53506;BME280;39388;50.936;6.848;2023-03-15T04:02:44;100793.13;;;3.75;78.79
53506;BME280;39388;50.936;6.848;2023-03-15T04:05:15;100794.00;;;3.75;79.18
53506;BME280;39388;50.936;6.848;2023-03-15T04:07:45;100785.47;;;3.75;78.86
53506;BME280;39388;50.936;6.848;2023-03-15T04:10:16;100783.63;;;3.67;78.94
53506;BME280;39388;50.936;6.848;2023-03-15T04:12:46;100802.41;;;3.71;79.13
53506;BME280;39388;50.936;6.848;2023-03-15T04:15:16;100810.16;;;3.76;79.47
53506;BME280;39388;50.936;6.848;2023-03-15T04:17:48;100798.97;;;3.71;79.30
53506;BME280;39388;50.936;6.848;2023-03-15T04:20:18;100808.41;;;3.73;79.34
53506;BME280;39388;50.936;6.848;2023-03-15T04:22:49;100803.22;;;3.70;79.39
53506;BME280;39388;50.936;6.848;2023-03-15T04:25:20;100811.91;;;3.77;79.43
53506;BME280;39388;50.936;6.848;2023-03-15T04:27:51;100811.00;;;3.76;79.58
53506;BME280;39388;50.936;6.848;2023-03-15T04:30:28;100817.03;;;3.78;79.68
53506;BME280;39388;50.936;6.848;2023-03-15T04:32:58;100810.97;;;3.73;79.48
53506;BME280;39388;50.936;6.848;2023-03-15T04:35:32;100819.63;;;3.80;79.70
53506;BME280;39388;50.936;6.848;2023-03-15T04:38:03;100807.63;;;3.76;79.66
53506;BME280;39388;50.936;6.848;2023-03-15T04:40:34;100823.81;;;3.78;79.97
53506;BME280;39388;50.936;6.848;2023-03-15T04:43:05;100832.41;;;3.81;79.70
53506;BME280;39388;50.936;6.848;2023-03-15T04:45:35;100839.03;;;3.75;80.02
53506;BME280;39388;50.936;6.848;2023-03-15T04:48:06;100847.44;;;3.71;79.50
53506;BME280;39388;50.936;6.848;2023-03-15T04:50:36;100845.66;;;3.66;80.10
53506;BME280;39388;50.936;6.848;2023-03-15T04:53:06;100854.16;;;3.67;79.82
53506;BME280;39388;50.936;6.848;2023-03-15T04:55:37;100847.13;;;3.58;80.04
53506;BME280;39388;50.936;6.848;2023-03-15T04:58:07;100859.03;;;3.58;80.25
53506;BME280;39388;50.936;6.848;2023-03-15T05:00:37;100862.41;;;3.57;80.26
53506;BME280;39388;50.936;6.848;2023-03-15T05:03:08;100843.59;;;3.53;79.72
53506;BME280;39388;50.936;6.848;2023-03-15T05:05:38;100851.28;;;3.54;79.74
53506;BME280;39388;50.936;6.848;2023-03-15T05:08:08;100829.69;;;3.42;80.25
53506;BME280;39388;50.936;6.848;2023-03-15T05:10:39;100859.06;;;3.59;80.07
53506;BME280;39388;50.936;6.848;2023-03-15T05:13:09;100856.50;;;3.59;80.15
53506;BME280;39388;50.936;6.848;2023-03-15T05:15:39;100851.47;;;3.61;80.21
53506;BME280;39388;50.936;6.848;2023-03-15T05:18:10;100847.00;;;3.53;80.04
53506;BME280;39388;50.936;6.848;2023-03-15T05:20:40;100849.66;;;3.58;80.44
53506;BME280;39388;50.936;6.848;2023-03-15T05:23:11;100857.41;;;3.61;80.63
53506;BME280;39388;50.936;6.848;2023-03-15T05:25:42;100855.69;;;3.60;80.88
53506;BME280;39388;50.936;6.848;2023-03-15T05:28:13;100862.41;;;3.58;80.52
53506;BME280;39388;50.936;6.848;2023-03-15T05:30:47;100869.13;;;3.54;80.44
53506;BME280;39388;50.936;6.848;2023-03-15T05:33:18;100866.28;;;3.44;80.79
53506;BME280;39388;50.936;6.848;2023-03-15T05:35:49;100885.13;;;3.49;81.20
53506;BME280;39388;50.936;6.848;2023-03-15T05:38:22;100888.53;;;3.49;81.21
53506;BME280;39388;50.936;6.848;2023-03-15T05:40:55;100887.66;;;3.47;81.25
53506;BME280;39388;50.936;6.848;2023-03-15T05:43:26;100883.31;;;3.45;81.35
53506;BME280;39388;50.936;6.848;2023-03-15T05:45:56;100888.41;;;3.45;81.32
53506;BME280;39388;50.936;6.848;2023-03-15T05:48:26;100900.25;;;3.43;81.44
53506;BME280;39388;50.936;6.848;2023-03-15T05:50:57;100910.50;;;3.44;81.46
53506;BME280;39388;50.936;6.848;2023-03-15T05:53:27;100924.19;;;3.48;81.54
53506;BME280;39388;50.936;6.848;2023-03-15T05:55:57;100924.28;;;3.51;81.47
53506;BME280;39388;50.936;6.848;2023-03-15T05:58:28;100926.94;;;3.54;81.57
53506;BME280;39388;50.936;6.848;2023-03-15T06:00:58;100929.50;;;3.56;81.60
53506;BME280;39388;50.936;6.848;2023-03-15T06:03:30;100946.69;;;3.63;81.43
53506;BME280;39388;50.936;6.848;2023-03-15T06:06:01;100948.47;;;3.65;81.47
53506;BME280;39388;50.936;6.848;2023-03-15T06:08:32;100957.97;;;3.71;81.64
53506;BME280;39388;50.936;6.848;2023-03-15T06:11:02;100958.88;;;3.73;81.67
53506;BME280;39388;50.936;6.848;2023-03-15T06:13:33;100952.16;;;3.77;81.59
53506;BME280;39388;50.936;6.848;2023-03-15T06:16:03;100955.56;;;3.77;81.47
53506;BME280;39388;50.936;6.848;2023-03-15T06:18:34;100960.63;;;3.76;81.56
53506;BME280;39388;50.936;6.848;2023-03-15T06:21:04;100958.09;;;3.76;81.66
53506;BME280;39388;50.936;6.848;2023-03-15T06:23:35;100967.50;;;3.78;81.29
53506;BME280;39388;50.936;6.848;2023-03-15T06:26:05;100961.56;;;3.78;81.26
53506;BME280;39388;50.936;6.848;2023-03-15T06:28:35;100967.44;;;3.75;81.18
53506;BME280;39388;50.936;6.848;2023-03-15T06:31:07;100969.28;;;3.81;81.27
53506;BME280;39388;50.936;6.848;2023-03-15T06:33:38;100964.91;;;3.75;81.03
53506;BME280;39388;50.936;6.848;2023-03-15T06:36:09;100978.59;;;3.79;81.20
53506;BME280;39388;50.936;6.848;2023-03-15T06:38:40;100994.03;;;3.85;81.19
53506;BME280;39388;50.936;6.848;2023-03-15T06:41:11;101000.06;;;3.87;81.36
53506;BME280;39388;50.936;6.848;2023-03-15T06:43:42;101011.19;;;3.91;81.07
53506;BME280;39388;50.936;6.848;2023-03-15T06:46:12;101012.88;;;3.89;81.33
53506;BME280;39388;50.936;6.848;2023-03-15T06:48:43;101013.72;;;3.89;81.30
53506;BME280;39388;50.936;6.848;2023-03-15T06:51:13;101016.38;;;3.94;81.28
53506;BME280;39388;50.936;6.848;2023-03-15T06:53:44;101016.38;;;3.94;81.54
53506;BME280;39388;50.936;6.848;2023-03-15T06:56:14;101025.97;;;4.03;81.54
53506;BME280;39388;50.936;6.848;2023-03-15T06:58:45;101033.00;;;4.10;81.08
53506;BME280;39388;50.936;6.848;2023-03-15T07:01:15;101030.50;;;4.13;81.35
53506;BME280;39388;50.936;6.848;2023-03-15T07:03:45;101022.81;;;4.11;81.28
53506;BME280;39388;50.936;6.848;2023-03-15T07:06:16;101033.19;;;4.18;81.05
53506;BME280;39388;50.936;6.848;2023-03-15T07:08:46;101036.63;;;4.20;81.34
53506;BME280;39388;50.936;6.848;2023-03-15T07:11:16;101041.09;;;4.27;81.47
53506;BME280;39388;50.936;6.848;2023-03-15T07:13:47;101052.28;;;4.32;81.39
53506;BME280;39388;50.936;6.848;2023-03-15T07:16:17;101059.25;;;4.38;81.32
53506;BME280;39388;50.936;6.848;2023-03-15T07:18:47;101052.41;;;4.37;81.00
53506;BME280;39388;50.936;6.848;2023-03-15T07:21:19;101040.25;;;4.28;81.01
53506;BME280;39388;50.936;6.848;2023-03-15T07:23:50;101070.50;;;4.46;81.25
53506;BME280;39388;50.936;6.848;2023-03-15T07:26:20;101067.13;;;4.47;81.45
53506;BME280;39388;50.936;6.848;2023-03-15T07:28:50;101072.31;;;4.50;81.21
53506;BME280;39388;50.936;6.848;2023-03-15T07:31:21;101074.88;;;4.50;81.27
53506;BME280;39388;50.936;6.848;2023-03-15T07:33:52;101068.13;;;4.52;81.28
53506;BME280;39388;50.936;6.848;2023-03-15T07:36:22;101081.91;;;4.59;81.19
53506;BME280;39388;50.936;6.848;2023-03-15T07:38:53;101079.56;;;4.67;81.50
53506;BME280;39388;50.936;6.848;2023-03-15T07:41:23;101095.84;;;4.72;81.52
53506;BME280;39388;50.936;6.848;2023-03-15T07:43:53;101100.19;;;4.74;81.30
53506;BME280;39388;50.936;6.848;2023-03-15T07:46:24;101106.16;;;4.75;81.17
53506;BME280;39388;50.936;6.848;2023-03-15T07:48:54;101111.03;;;4.66;81.03
53506;BME280;39388;50.936;6.848;2023-03-15T07:51:24;101116.84;;;4.60;81.99
53506;BME280;39388;50.936;6.848;2023-03-15T07:53:55;101120.25;;;4.60;81.46
53506;BME280;39388;50.936;6.848;2023-03-15T07:56:25;101131.34;;;4.61;81.41
53506;BME280;39388;50.936;6.848;2023-03-15T07:58:55;101129.56;;;4.58;81.35
53506;BME280;39388;50.936;6.848;2023-03-15T08:01:26;101137.13;;;4.55;81.30
53506;BME280;39388;50.936;6.848;2023-03-15T08:03:56;101139.66;;;4.54;81.35
53506;BME280;39388;50.936;6.848;2023-03-15T08:06:26;101139.56;;;4.51;81.47
53506;BME280;39388;50.936;6.848;2023-03-15T08:08:57;101138.66;;;4.49;81.91
53506;BME280;39388;50.936;6.848;2023-03-15T08:11:27;101153.97;;;4.49;81.02
53506;BME280;39388;50.936;6.848;2023-03-15T08:13:58;101152.31;;;4.49;81.32
53506;BME280;39388;50.936;6.848;2023-03-15T08:16:28;101151.44;;;4.49;81.11
53506;BME280;39388;50.936;6.848;2023-03-15T08:18:59;101150.41;;;4.42;81.46
53506;BME280;39388;50.936;6.848;2023-03-15T08:21:29;101173.59;;;4.50;81.33
53506;BME280;39388;50.936;6.848;2023-03-15T08:24:02;101178.84;;;4.54;81.85
53506;BME280;39388;50.936;6.848;2023-03-15T08:26:33;101178.75;;;4.51;80.99
53506;BME280;39388;50.936;6.848;2023-03-15T08:29:03;101177.03;;;4.50;81.16
53506;BME280;39388;50.936;6.848;2023-03-15T08:31:33;101180.38;;;4.48;81.06
53506;BME280;39388;50.936;6.848;2023-03-15T08:34:04;101192.44;;;4.53;81.09
53506;BME280;39388;50.936;6.848;2023-03-15T08:36:34;101191.78;;;4.60;81.63
53506;BME280;39388;50.936;6.848;2023-03-15T08:39:04;101196.25;;;4.69;81.33
53506;BME280;39388;50.936;6.848;2023-03-15T08:41:35;101193.19;;;4.81;81.83
53506;BME280;39388;50.936;6.848;2023-03-15T08:44:05;101200.34;;;4.95;81.27
53506;BME280;39388;50.936;6.848;2023-03-15T08:46:36;101204.06;;;5.07;81.76
53506;BME280;39388;50.936;6.848;2023-03-15T08:49:06;101209.28;;;5.12;81.27
53506;BME280;39388;50.936;6.848;2023-03-15T08:51:36;101206.88;;;5.17;81.62
53506;BME280;39388;50.936;6.848;2023-03-15T08:54:07;101222.47;;;5.28;80.81
53506;BME280;39388;50.936;6.848;2023-03-15T08:56:37;101225.91;;;5.30;80.60
53506;BME280;39388;50.936;6.848;2023-03-15T08:59:08;101234.56;;;5.33;80.32
53506;BME280;39388;50.936;6.848;2023-03-15T09:01:39;101232.03;;;5.35;80.24
53506;BME280;39388;50.936;6.848;2023-03-15T09:04:09;101233.97;;;5.45;79.80
53506;BME280;39388;50.936;6.848;2023-03-15T09:06:40;101234.09;;;5.50;80.06
53506;BME280;39388;50.936;6.848;2023-03-15T09:09:11;101224.81;;;5.53;80.30
53506;BME280;39388;50.936;6.848;2023-03-15T09:11:42;101241.41;;;5.71;79.43
53506;BME280;39388;50.936;6.848;2023-03-15T09:14:12;101240.72;;;5.78;79.94
53506;BME280;39388;50.936;6.848;2023-03-15T09:16:42;101241.75;;;5.87;79.70
53506;BME280;39388;50.936;6.848;2023-03-15T09:19:13;101236.81;;;5.94;79.43
53506;BME280;39388;50.936;6.848;2023-03-15T09:21:43;101242.25;;;6.08;78.89
53506;BME280;39388;50.936;6.848;2023-03-15T09:24:14;101245.72;;;6.10;79.02
53506;BME280;39388;50.936;6.848;2023-03-15T09:26:44;101240.53;;;6.07;78.63
53506;BME280;39388;50.936;6.848;2023-03-15T09:29:15;101248.31;;;6.13;78.43
53506;BME280;39388;50.936;6.848;2023-03-15T09:31:45;101245.81;;;6.15;78.66
53506;BME280;39388;50.936;6.848;2023-03-15T09:34:15;101250.22;;;6.22;78.13
53506;BME280;39388;50.936;6.848;2023-03-15T09:36:46;101232.19;;;6.16;78.14
53506;BME280;39388;50.936;6.848;2023-03-15T09:39:22;101249.56;;;6.31;77.64
53506;BME280;39388;50.936;6.848;2023-03-15T09:41:55;101260.63;;;6.30;77.36
53506;BME280;39388;50.936;6.848;2023-03-15T09:50:19;101268.53;;;6.01;77.50
53506;BME280;39388;50.936;6.848;2023-03-15T09:53:05;101259.66;;;5.85;77.39
53506;BME280;39388;50.936;6.848;2023-03-15T09:55:39;101253.47;;;5.77;77.74
53506;BME280;39388;50.936;6.848;2023-03-15T09:58:20;101244.97;;;5.78;78.03
53506;BME280;39388;50.936;6.848;2023-03-15T10:00:55;101249.53;;;5.91;77.99
53506;BME280;39388;50.936;6.848;2023-03-15T10:06:16;101253.50;;;6.15;77.34
53506;BME280;39388;50.936;6.848;2023-03-15T10:08:49;101255.41;;;6.24;76.89
53506;BME280;39388;50.936;6.848;2023-03-15T10:16:49;101253.50;;;6.55;75.88
53506;BME280;39388;50.936;6.848;2023-03-15T10:22:21;101257.22;;;6.72;73.86
53506;BME280;39388;50.936;6.848;2023-03-15T10:25:03;101257.38;;;6.79;73.55
53506;BME280;39388;50.936;6.848;2023-03-15T10:27:42;101262.69;;;6.89;73.65
53506;BME280;39388;50.936;6.848;2023-03-15T10:35:39;101261.50;;;7.19;71.45
53506;BME280;39388;50.936;6.848;2023-03-15T10:38:16;101267.66;;;7.26;71.25
53506;BME280;39388;50.936;6.848;2023-03-15T10:40:54;101272.88;;;7.34;71.37
53506;BME280;39388;50.936;6.848;2023-03-15T10:43:26;101270.66;;;7.51;70.86
53506;BME280;39388;50.936;6.848;2023-03-15T10:48:39;101271.03;;;7.74;69.70
53506;BME280;39388;50.936;6.848;2023-03-15T10:54:11;101270.19;;;7.75;70.13
53506;BME280;39388;50.936;6.848;2023-03-15T10:56:48;101266.09;;;7.88;69.83
53506;BME280;39388;50.936;6.848;2023-03-15T10:59:22;101269.78;;;8.07;70.05
53506;BME280;39388;50.936;6.848;2023-03-15T11:04:43;101268.31;;;8.25;68.39
53506;BME280;39388;50.936;6.848;2023-03-15T11:07:16;101270.06;;;8.26;67.95
53506;BME280;39388;50.936;6.848;2023-03-15T11:09:58;101270.22;;;8.37;67.88
53506;BME280;39388;50.936;6.848;2023-03-15T11:12:31;101272.16;;;8.56;67.80
53506;BME280;39388;50.936;6.848;2023-03-15T11:15:20;101277.47;;;8.70;66.71
53506;BME280;39388;50.936;6.848;2023-03-15T11:17:51;101269.72;;;8.66;65.56
53506;BME280;39388;50.936;6.848;2023-03-15T11:20:28;101279.84;;;8.53;64.93
53506;BME280;39388;50.936;6.848;2023-03-15T11:23:15;101281.38;;;8.42;65.15
53506;BME280;39388;50.936;6.848;2023-03-15T11:25:48;101272.75;;;8.35;65.44
53506;BME280;39388;50.936;6.848;2023-03-15T11:28:25;101285.78;;;8.49;64.62
53506;BME280;39388;50.936;6.848;2023-03-15T11:31:00;101295.28;;;8.56;64.37
53506;BME280;39388;50.936;6.848;2023-03-15T11:33:52;101303.94;;;8.62;64.00
53506;BME280;39388;50.936;6.848;2023-03-15T11:36:25;101304.81;;;8.64;63.77
53506;BME280;39388;50.936;6.848;2023-03-15T11:38:59;101294.44;;;8.57;62.35
53506;BME280;39388;50.936;6.848;2023-03-15T11:41:49;101298.72;;;8.57;61.79
53506;BME280;39388;50.936;6.848;2023-03-15T11:44:24;101300.41;;;8.53;61.71
53506;BME280;39388;50.936;6.848;2023-03-15T11:52:03;101306.66;;;8.72;61.30
53506;BME280;39388;50.936;6.848;2023-03-15T11:54:34;101310.16;;;8.79;61.08
53506;BME280;39388;50.936;6.848;2023-03-15T11:57:37;101315.34;;;8.84;60.62
53506;BME280;39388;50.936;6.848;2023-03-15T12:00:25;101323.19;;;8.95;60.94
53506;BME280;39388;50.936;6.848;2023-03-15T12:14:09;101307.19;;;9.22;59.86
53506;BME280;39388;50.936;6.848;2023-03-15T12:16:49;101290.84;;;9.20;59.13
53506;BME280;39388;50.936;6.848;2023-03-15T12:19:20;101299.56;;;9.31;58.65
53506;BME280;39388;50.936;6.848;2023-03-15T12:21:57;101313.34;;;9.40;57.08
53506;BME280;39388;50.936;6.848;2023-03-15T12:24:30;101318.44;;;9.30;55.66
53506;BME280;39388;50.936;6.848;2023-03-15T12:29:45;101315.00;;;9.33;55.89
53506;BME280;39388;50.936;6.848;2023-03-15T12:32:17;101303.94;;;9.42;55.93
53506;BME280;39388;50.936;6.848;2023-03-15T12:35:06;101308.34;;;9.57;56.12
53506;BME280;39388;50.936;6.848;2023-03-15T12:37:44;101301.56;;;9.65;56.05
53506;BME280;39388;50.936;6.848;2023-03-15T12:53:26;101297.28;;;9.65;54.87
53506;BME280;39388;50.936;6.848;2023-03-15T12:58:42;101284.56;;;9.83;54.76
53506;BME280;39388;50.936;6.848;2023-03-15T13:01:16;101296.66;;;9.91;54.52
53506;BME280;39388;50.936;6.848;2023-03-15T13:03:47;101288.94;;;9.94;54.40
53506;BME280;39388;50.936;6.848;2023-03-15T13:12:28;101287.28;;;10.06;53.88
53506;BME280;39388;50.936;6.848;2023-03-15T13:15:42;101286.44;;;10.01;53.71
53506;BME280;39388;50.936;6.848;2023-03-15T13:18:17;101287.97;;;9.81;54.15
53506;BME280;39388;50.936;6.848;2023-03-15T13:23:30;101288.81;;;9.82;53.76
53506;BME280;39388;50.936;6.848;2023-03-15T13:28:47;101282.00;;;9.87;52.62
53506;BME280;39388;50.936;6.848;2023-03-15T13:33:51;101288.13;;;10.00;52.07
53506;BME280;39388;50.936;6.848;2023-03-15T13:36:37;101292.41;;;9.96;51.19
53506;BME280;39388;50.936;6.848;2023-03-15T13:39:20;101287.19;;;9.89;50.91
53506;BME280;39388;50.936;6.848;2023-03-15T13:42:15;101283.63;;;9.73;50.19
53506;BME280;39388;50.936;6.848;2023-03-15T13:44:46;101284.41;;;9.65;50.42
53506;BME280;39388;50.936;6.848;2023-03-15T13:47:19;101285.28;;;9.68;51.01
53506;BME280;39388;50.936;6.848;2023-03-15T13:49:52;101288.75;;;9.70;50.62
53506;BME280;39388;50.936;6.848;2023-03-15T13:52:23;101289.56;;;9.64;50.73
53506;BME280;39388;50.936;6.848;2023-03-15T13:54:53;101294.69;;;9.64;51.22
53506;BME280;39388;50.936;6.848;2023-03-15T13:57:24;101296.44;;;9.65;51.47
53506;BME280;39388;50.936;6.848;2023-03-15T14:02:50;101291.34;;;9.74;51.49
53506;BME280;39388;50.936;6.848;2023-03-15T14:05:28;101290.53;;;9.78;51.64
53506;BME280;39388;50.936;6.848;2023-03-15T14:08:05;101292.22;;;9.78;51.83
53506;BME280;39388;50.936;6.848;2023-03-15T14:10:37;101300.81;;;9.80;51.73
53506;BME280;39388;50.936;6.848;2023-03-15T14:15:46;101287.94;;;9.77;51.95
53506;BME280;39388;50.936;6.848;2023-03-15T14:18:21;101302.59;;;9.84;51.89
53506;BME280;39388;50.936;6.848;2023-03-15T14:20:59;101300.84;;;9.83;51.41
53506;BME280;39388;50.936;6.848;2023-03-15T14:23:30;101305.97;;;9.80;52.00
53506;BME280;39388;50.936;6.848;2023-03-15T14:26:17;101310.28;;;9.79;51.46
53506;BME280;39388;50.936;6.848;2023-03-15T14:28:51;101305.09;;;9.75;50.95
53506;BME280;39388;50.936;6.848;2023-03-15T14:31:29;101300.75;;;9.69;50.97
53506;BME280;39388;50.936;6.848;2023-03-15T14:34:16;101301.63;;;9.70;50.77
53506;BME280;39388;50.936;6.848;2023-03-15T14:36:47;101306.75;;;9.70;51.46
53506;BME280;39388;50.936;6.848;2023-03-15T14:39:24;101306.75;;;9.68;51.34
53506;BME280;39388;50.936;6.848;2023-03-15T14:41:55;101307.59;;;9.70;51.67
53506;BME280;39388;50.936;6.848;2023-03-15T14:44:25;101306.72;;;9.66;51.75
53506;BME280;39388;50.936;6.848;2023-03-15T14:46:56;101304.97;;;9.61;51.83
53506;BME280;39388;50.936;6.848;2023-03-15T14:49:27;101309.28;;;9.63;51.33
53506;BME280;39388;50.936;6.848;2023-03-15T14:52:00;101311.78;;;9.56;50.68
53506;BME280;39388;50.936;6.848;2023-03-15T14:54:31;101319.50;;;9.54;50.74
53506;BME280;39388;50.936;6.848;2023-03-15T14:57:03;101316.03;;;9.52;51.29
53506;BME280;39388;50.936;6.848;2023-03-15T14:59:33;101317.81;;;9.56;51.23